sensor_id;sensor_type;location;lat;lon;timestamp;temperature;humidity
38480;DHT22;62333;51.980;5.934;2023-02-23T00:01:46;10.90;94.00
38480;DHT22;62333;51.980;5.934;2023-02-23T00:04:12;10.90;94.00
38480;DHT22;62333;51.980;5.934;2023-02-23T00:06:37;10.90;94.00
38480;DHT22;62333;51.980;5.934;2023-02-23T00:09:04;10.90;94.00
38480;DHT22;62333;51.980;5.934;2023-02-23T00:11:55;10.90;94.00
38480;DHT22;62333;51.980;5.934;2023-02-23T00:14:25;10.90;94.00
38480;DHT22;62333;51.980;5.934;2023-02-23T00:16:55;10.90;93.90
38480;DHT22;62333;51.980;5.934;2023-02-23T00:19:21;10.90;93.90
38480;DHT22;62333;51.980;5.934;2023-02-23T00:21:49;10.90;93.90
38480;DHT22;62333;51.980;5.934;2023-02-23T00:24:16;10.90;94.00
38480;DHT22;62333;51.980;5.934;2023-02-23T00:26:44;10.90;94.00
38480;DHT22;62333;51.980;5.934;2023-02-23T00:29:15;10.80;93.90
38480;DHT22;62333;51.980;5.934;2023-02-23T00:31:42;10.90;94.00
38480;DHT22;62333;51.980;5.934;2023-02-23T00:34:09;10.80;93.90
38480;DHT22;62333;51.980;5.934;2023-02-23T00:36:36;10.80;93.90
38480;DHT22;62333;51.980;5.934;2023-02-23T00:39:09;10.80;93.90
38480;DHT22;62333;51.980;5.934;2023-02-23T00:41:50;10.80;93.90
38480;DHT22;62333;51.980;5.934;2023-02-23T00:44:20;10.80;93.90
38480;DHT22;62333;51.980;5.934;2023-02-23T00:46:49;10.80;93.90
38480;DHT22;62333;51.980;5.934;2023-02-23T00:49:16;10.80;93.90
38480;DHT22;62333;51.980;5.934;2023-02-23T00:51:42;10.80;93.90
38480;DHT22;62333;51.980;5.934;2023-02-23T00:54:11;10.80;93.90
38480;DHT22;62333;51.980;5.934;2023-02-23T00:56:37;10.80;93.90
38480;DHT22;62333;51.980;5.934;2023-02-23T00:59:03;10.80;93.90
38480;DHT22;62333;51.980;5.934;2023-02-23T01:01:29;10.80;93.90
38480;DHT22;62333;51.980;5.934;2023-02-23T01:03:55;10.70;93.90
38480;DHT22;62333;51.980;5.934;2023-02-23T01:06:21;10.80;93.90
38480;DHT22;62333;51.980;5.934;2023-02-23T01:08:49;10.70;93.90
38480;DHT22;62333;51.980;5.934;2023-02-23T01:11:18;10.70;93.90
38480;DHT22;62333;51.980;5.934;2023-02-23T01:13:47;10.70;93.90
38480;DHT22;62333;51.980;5.934;2023-02-23T01:16:16;10.70;93.90
38480;DHT22;62333;51.980;5.934;2023-02-23T01:18:44;10.70;94.00
38480;DHT22;62333;51.980;5.934;2023-02-23T01:21:31;10.70;94.00
38480;DHT22;62333;51.980;5.934;2023-02-23T01:23:57;10.70;93.90
38480;DHT22;62333;51.980;5.934;2023-02-23T01:26:24;10.70;93.90
38480;DHT22;62333;51.980;5.934;2023-02-23T01:28:55;10.70;93.90
38480;DHT22;62333;51.980;5.934;2023-02-23T01:31:22;10.70;94.20
38480;DHT22;62333;51.980;5.934;2023-02-23T01:33:55;10.70;93.90
38480;DHT22;62333;51.980;5.934;2023-02-23T01:36:21;10.80;94.00
38480;DHT22;62333;51.980;5.934;2023-02-23T01:38:47;10.80;93.90
38480;DHT22;62333;51.980;5.934;2023-02-23T01:41:14;10.70;93.90
38480;DHT22;62333;51.980;5.934;2023-02-23T01:44:02;10.80;94.00
38480;DHT22;62333;51.980;5.934;2023-02-23T01:46:33;10.70;93.90
38480;DHT22;62333;51.980;5.934;2023-02-23T01:48:59;10.70;93.90
38480;DHT22;62333;51.980;5.934;2023-02-23T01:51:28;10.70;93.90
38480;DHT22;62333;51.980;5.934;2023-02-23T01:54:01;10.70;94.00
38480;DHT22;62333;51.980;5.934;2023-02-23T01:56:33;10.80;94.00
38480;DHT22;62333;51.980;5.934;2023-02-23T01:59:04;10.70;93.90
38480;DHT22;62333;51.980;5.934;2023-02-23T02:01:30;10.80;94.00
38480;DHT22;62333;51.980;5.934;2023-02-23T02:04:00;10.80;93.90
38480;DHT22;62333;51.980;5.934;2023-02-23T02:06:27;10.80;94.00
38480;DHT22;62333;51.980;5.934;2023-02-23T02:08:59;10.70;93.90
38480;DHT22;62333;51.980;5.934;2023-02-23T02:11:30;10.80;93.90
38480;DHT22;62333;51.980;5.934;2023-02-23T02:14:29;10.70;93.90
38480;DHT22;62333;51.980;5.934;2023-02-23T02:28:42;10.80;94.20
38480;DHT22;62333;51.980;5.934;2023-02-23T02:34:38;10.70;93.90
38480;DHT22;62333;51.980;5.934;2023-02-23T02:37:44;10.70;93.90
38480;DHT22;62333;51.980;5.934;2023-02-23T02:40:30;10.70;93.90
38480;DHT22;62333;51.980;5.934;2023-02-23T02:43:14;10.70;93.90
38480;DHT22;62333;51.980;5.934;2023-02-23T02:57:03;10.70;93.90
38480;DHT22;62333;51.980;5.934;2023-02-23T02:59:30;10.70;93.90
38480;DHT22;62333;51.980;5.934;2023-02-23T03:02:17;10.70;93.90
38480;DHT22;62333;51.980;5.934;2023-02-23T03:05:01;10.60;93.90
38480;DHT22;62333;51.980;5.934;2023-02-23T03:23:13;10.60;93.90
38480;DHT22;62333;51.980;5.934;2023-02-23T03:26:04;10.60;93.90
38480;DHT22;62333;51.980;5.934;2023-02-23T03:29:01;10.50;93.90
38480;DHT22;62333;51.980;5.934;2023-02-23T03:31:58;10.50;94.00
38480;DHT22;62333;51.980;5.934;2023-02-23T03:35:00;10.60;94.00
38480;DHT22;62333;51.980;5.934;2023-02-23T03:37:52;10.50;94.00
38480;DHT22;62333;51.980;5.934;2023-02-23T03:40:40;10.50;94.00
38480;DHT22;62333;51.980;5.934;2023-02-23T03:43:33;10.60;94.00
38480;DHT22;62333;51.980;5.934;2023-02-23T03:46:18;10.50;94.00
38480;DHT22;62333;51.980;5.934;2023-02-23T03:49:06;10.60;94.00
38480;DHT22;62333;51.980;5.934;2023-02-23T03:51:56;10.50;94.00
38480;DHT22;62333;51.980;5.934;2023-02-23T03:54:52;10.50;94.00
38480;DHT22;62333;51.980;5.934;2023-02-23T03:57:38;10.60;94.00
38480;DHT22;62333;51.980;5.934;2023-02-23T04:00:31;10.50;94.00
38480;DHT22;62333;51.980;5.934;2023-02-23T04:03:17;10.60;94.00
38480;DHT22;62333;51.980;5.934;2023-02-23T04:06:05;10.50;94.00
38480;DHT22;62333;51.980;5.934;2023-02-23T04:08:50;10.50;94.10
38480;DHT22;62333;51.980;5.934;2023-02-23T04:11:53;10.50;94.10
38480;DHT22;62333;51.980;5.934;2023-02-23T04:14:55;10.50;94.10
38480;DHT22;62333;51.980;5.934;2023-02-23T04:17:31;10.50;94.10
38480;DHT22;62333;51.980;5.934;2023-02-23T04:19:57;10.50;94.10
38480;DHT22;62333;51.980;5.934;2023-02-23T04:22:23;10.50;94.40
38480;DHT22;62333;51.980;5.934;2023-02-23T04:24:48;10.50;94.40
38480;DHT22;62333;51.980;5.934;2023-02-23T04:27:15;10.50;94.20
38480;DHT22;62333;51.980;5.934;2023-02-23T04:29:41;10.50;94.20
38480;DHT22;62333;51.980;5.934;2023-02-23T04:32:12;10.50;94.20
38480;DHT22;62333;51.980;5.934;2023-02-23T04:34:38;10.50;94.20
38480;DHT22;62333;51.980;5.934;2023-02-23T04:37:04;10.50;94.20
38480;DHT22;62333;51.980;5.934;2023-02-23T04:39:30;10.50;94.30
38480;DHT22;62333;51.980;5.934;2023-02-23T04:41:55;10.50;94.30
38480;DHT22;62333;51.980;5.934;2023-02-23T04:44:21;10.50;94.30
38480;DHT22;62333;51.980;5.934;2023-02-23T04:46:47;10.50;94.30
38480;DHT22;62333;51.980;5.934;2023-02-23T04:49:12;10.50;94.30
38480;DHT22;62333;51.980;5.934;2023-02-23T04:51:38;10.50;94.30
38480;DHT22;62333;51.980;5.934;2023-02-23T04:54:04;10.50;94.30
38480;DHT22;62333;51.980;5.934;2023-02-23T04:56:30;10.50;94.20
38480;DHT22;62333;51.980;5.934;2023-02-23T04:58:56;10.50;94.30
38480;DHT22;62333;51.980;5.934;2023-02-23T05:01:22;10.50;94.30
38480;DHT22;62333;51.980;5.934;2023-02-23T05:03:48;10.50;94.20
38480;DHT22;62333;51.980;5.934;2023-02-23T05:06:18;10.50;94.30
38480;DHT22;62333;51.980;5.934;2023-02-23T05:08:44;10.50;94.30
38480;DHT22;62333;51.980;5.934;2023-02-23T05:11:10;10.50;94.20
38480;DHT22;62333;51.980;5.934;2023-02-23T05:13:36;10.50;94.20
38480;DHT22;62333;51.980;5.934;2023-02-23T05:16:02;10.50;94.30
38480;DHT22;62333;51.980;5.934;2023-02-23T05:18:28;10.50;94.30
38480;DHT22;62333;51.980;5.934;2023-02-23T05:21:00;10.50;94.30
38480;DHT22;62333;51.980;5.934;2023-02-23T05:23:25;10.50;94.30
38480;DHT22;62333;51.980;5.934;2023-02-23T05:25:51;10.40;94.30
38480;DHT22;62333;51.980;5.934;2023-02-23T05:28:17;10.50;94.30
38480;DHT22;62333;51.980;5.934;2023-02-23T05:30:42;10.40;94.30
38480;DHT22;62333;51.980;5.934;2023-02-23T05:33:08;10.50;94.30
38480;DHT22;62333;51.980;5.934;2023-02-23T05:35:34;10.40;94.30
38480;DHT22;62333;51.980;5.934;2023-02-23T05:38:00;10.40;94.30
38480;DHT22;62333;51.980;5.934;2023-02-23T05:40:25;10.50;94.40
38480;DHT22;62333;51.980;5.934;2023-02-23T05:42:51;10.50;94.40
38480;DHT22;62333;51.980;5.934;2023-02-23T05:45:22;10.40;94.30
38480;DHT22;62333;51.980;5.934;2023-02-23T05:47:48;10.40;94.30
38480;DHT22;62333;51.980;5.934;2023-02-23T05:50:13;10.40;94.40
38480;DHT22;62333;51.980;5.934;2023-02-23T05:52:40;10.40;94.40
38480;DHT22;62333;51.980;5.934;2023-02-23T05:55:08;10.40;94.40
38480;DHT22;62333;51.980;5.934;2023-02-23T05:57:34;10.40;94.40
38480;DHT22;62333;51.980;5.934;2023-02-23T06:00:00;10.40;94.40
38480;DHT22;62333;51.980;5.934;2023-02-23T06:02:25;10.40;94.40
38480;DHT22;62333;51.980;5.934;2023-02-23T06:04:51;10.40;94.40
38480;DHT22;62333;51.980;5.934;2023-02-23T06:07:17;10.40;94.40
38480;DHT22;62333;51.980;5.934;2023-02-23T06:09:43;10.40;94.40
38480;DHT22;62333;51.980;5.934;2023-02-23T06:12:08;10.40;94.50
38480;DHT22;62333;51.980;5.934;2023-02-23T06:14:34;10.30;94.40
38480;DHT22;62333;51.980;5.934;2023-02-23T06:17:00;10.30;94.40
38480;DHT22;62333;51.980;5.934;2023-02-23T06:19:25;10.40;94.50
38480;DHT22;62333;51.980;5.934;2023-02-23T06:21:51;10.30;94.50
38480;DHT22;62333;51.980;5.934;2023-02-23T06:24:18;10.30;94.50
38480;DHT22;62333;51.980;5.934;2023-02-23T06:26:44;10.30;94.50
38480;DHT22;62333;51.980;5.934;2023-02-23T06:29:10;10.30;94.50
38480;DHT22;62333;51.980;5.934;2023-02-23T06:31:37;10.30;94.50
38480;DHT22;62333;51.980;5.934;2023-02-23T06:34:03;10.30;94.50
38480;DHT22;62333;51.980;5.934;2023-02-23T06:36:28;10.30;94.50
38480;DHT22;62333;51.980;5.934;2023-02-23T06:38:55;10.30;94.50
38480;DHT22;62333;51.980;5.934;2023-02-23T06:41:22;10.30;94.50
38480;DHT22;62333;51.980;5.934;2023-02-23T06:43:48;10.30;94.50
38480;DHT22;62333;51.980;5.934;2023-02-23T06:46:14;10.30;94.50
38480;DHT22;62333;51.980;5.934;2023-02-23T06:48:40;10.30;94.50
38480;DHT22;62333;51.980;5.934;2023-02-23T06:51:06;10.30;94.80
38480;DHT22;62333;51.980;5.934;2023-02-23T06:53:32;10.30;94.60
38480;DHT22;62333;51.980;5.934;2023-02-23T06:55:58;10.30;94.50
38480;DHT22;62333;51.980;5.934;2023-02-23T06:58:24;10.40;94.60
38480;DHT22;62333;51.980;5.934;2023-02-23T07:00:50;10.30;94.50
38480;DHT22;62333;51.980;5.934;2023-02-23T07:03:16;10.30;94.50
38480;DHT22;62333;51.980;5.934;2023-02-23T07:05:43;10.40;94.50
38480;DHT22;62333;51.980;5.934;2023-02-23T07:08:09;10.30;94.50
38480;DHT22;62333;51.980;5.934;2023-02-23T07:10:35;10.40;94.60
38480;DHT22;62333;51.980;5.934;2023-02-23T07:13:01;10.40;94.60
38480;DHT22;62333;51.980;5.934;2023-02-23T07:15:27;10.40;94.60
38480;DHT22;62333;51.980;5.934;2023-02-23T07:17:52;10.40;94.60
38480;DHT22;62333;51.980;5.934;2023-02-23T07:20:18;10.40;94.60
38480;DHT22;62333;51.980;5.934;2023-02-23T07:22:44;10.40;94.60
38480;DHT22;62333;51.980;5.934;2023-02-23T07:25:10;10.40;94.60
38480;DHT22;62333;51.980;5.934;2023-02-23T07:27:36;10.40;94.60
38480;DHT22;62333;51.980;5.934;2023-02-23T07:30:03;10.40;94.60
38480;DHT22;62333;51.980;5.934;2023-02-23T07:32:29;10.40;94.60
38480;DHT22;62333;51.980;5.934;2023-02-23T07:34:54;10.40;94.60
38480;DHT22;62333;51.980;5.934;2023-02-23T07:37:20;10.30;94.60
38480;DHT22;62333;51.980;5.934;2023-02-23T07:39:46;10.40;94.60
38480;DHT22;62333;51.980;5.934;2023-02-23T07:42:12;10.40;94.60
38480;DHT22;62333;51.980;5.934;2023-02-23T07:44:38;10.40;94.60
38480;DHT22;62333;51.980;5.934;2023-02-23T07:47:05;10.40;94.60
38480;DHT22;62333;51.980;5.934;2023-02-23T07:49:32;10.40;94.60
38480;DHT22;62333;51.980;5.934;2023-02-23T07:51:58;10.40;94.60
38480;DHT22;62333;51.980;5.934;2023-02-23T07:54:24;10.40;94.60
38480;DHT22;62333;51.980;5.934;2023-02-23T07:56:51;10.40;94.60
38480;DHT22;62333;51.980;5.934;2023-02-23T07:59:16;10.40;94.60
38480;DHT22;62333;51.980;5.934;2023-02-23T08:01:43;10.40;94.60
38480;DHT22;62333;51.980;5.934;2023-02-23T08:04:09;10.40;94.60
38480;DHT22;62333;51.980;5.934;2023-02-23T08:06:35;10.50;94.60
38480;DHT22;62333;51.980;5.934;2023-02-23T08:09:01;10.40;94.60
38480;DHT22;62333;51.980;5.934;2023-02-23T08:11:27;10.40;94.60
38480;DHT22;62333;51.980;5.934;2023-02-23T08:13:54;10.50;94.60
38480;DHT22;62333;51.980;5.934;2023-02-23T08:16:28;10.50;94.60
38480;DHT22;62333;51.980;5.934;2023-02-23T08:18:56;10.50;94.60
38480;DHT22;62333;51.980;5.934;2023-02-23T08:21:23;10.50;94.50
38480;DHT22;62333;51.980;5.934;2023-02-23T08:23:49;10.50;94.50
38480;DHT22;62333;51.980;5.934;2023-02-23T08:26:14;10.50;94.60
38480;DHT22;62333;51.980;5.934;2023-02-23T08:28:40;10.50;94.50
38480;DHT22;62333;51.980;5.934;2023-02-23T08:31:09;10.50;94.50
38480;DHT22;62333;51.980;5.934;2023-02-23T08:33:35;10.50;94.50
38480;DHT22;62333;51.980;5.934;2023-02-23T08:36:03;10.60;94.60
38480;DHT22;62333;51.980;5.934;2023-02-23T08:38:29;10.60;94.60
38480;DHT22;62333;51.980;5.934;2023-02-23T08:40:59;10.60;94.50
38480;DHT22;62333;51.980;5.934;2023-02-23T08:43:25;10.60;94.50
38480;DHT22;62333;51.980;5.934;2023-02-23T08:45:50;10.60;94.50
38480;DHT22;62333;51.980;5.934;2023-02-23T08:48:16;10.60;94.50
38480;DHT22;62333;51.980;5.934;2023-02-23T08:50:41;10.60;94.50
38480;DHT22;62333;51.980;5.934;2023-02-23T08:53:07;10.60;94.50
38480;DHT22;62333;51.980;5.934;2023-02-23T08:55:33;10.70;94.50
38480;DHT22;62333;51.980;5.934;2023-02-23T08:58:00;10.70;94.50
38480;DHT22;62333;51.980;5.934;2023-02-23T09:00:26;10.70;94.50
38480;DHT22;62333;51.980;5.934;2023-02-23T09:02:51;10.70;94.50
38480;DHT22;62333;51.980;5.934;2023-02-23T09:05:17;10.70;94.80
38480;DHT22;62333;51.980;5.934;2023-02-23T09:07:43;10.80;94.80
38480;DHT22;62333;51.980;5.934;2023-02-23T09:10:16;10.80;94.50
38480;DHT22;62333;51.980;5.934;2023-02-23T09:12:44;10.80;94.50
38480;DHT22;62333;51.980;5.934;2023-02-23T09:15:10;10.80;94.40
38480;DHT22;62333;51.980;5.934;2023-02-23T09:17:36;10.80;94.40
38480;DHT22;62333;51.980;5.934;2023-02-23T09:20:03;10.80;94.40
38480;DHT22;62333;51.980;5.934;2023-02-23T09:22:29;10.80;94.40
38480;DHT22;62333;51.980;5.934;2023-02-23T09:24:55;10.80;94.40
38480;DHT22;62333;51.980;5.934;2023-02-23T09:27:21;10.80;94.40
38480;DHT22;62333;51.980;5.934;2023-02-23T09:29:46;10.90;94.40
38480;DHT22;62333;51.980;5.934;2023-02-23T09:32:13;10.90;94.40
38480;DHT22;62333;51.980;5.934;2023-02-23T09:34:39;10.90;94.40
38480;DHT22;62333;51.980;5.934;2023-02-23T09:37:05;11.00;94.40
38480;DHT22;62333;51.980;5.934;2023-02-23T09:39:31;11.00;94.40
38480;DHT22;62333;51.980;5.934;2023-02-23T09:42:05;11.00;94.40
38480;DHT22;62333;51.980;5.934;2023-02-23T09:47:29;11.00;94.30
38480;DHT22;62333;51.980;5.934;2023-02-23T09:49:58;11.10;94.30
38480;DHT22;62333;51.980;5.934;2023-02-23T09:52:36;11.10;94.30
38480;DHT22;62333;51.980;5.934;2023-02-23T09:55:03;11.10;94.30
38480;DHT22;62333;51.980;5.934;2023-02-23T09:57:36;11.10;94.20
38480;DHT22;62333;51.980;5.934;2023-02-23T10:00:15;11.10;94.20
38480;DHT22;62333;51.980;5.934;2023-02-23T10:03:03;11.10;94.20
38480;DHT22;62333;51.980;5.934;2023-02-23T10:05:40;11.10;94.20
38480;DHT22;62333;51.980;5.934;2023-02-23T10:08:19;11.10;94.20
38480;DHT22;62333;51.980;5.934;2023-02-23T10:10:50;11.10;94.10
38480;DHT22;62333;51.980;5.934;2023-02-23T10:15:54;11.20;94.20
38480;DHT22;62333;51.980;5.934;2023-02-23T10:21:38;11.20;94.10
38480;DHT22;62333;51.980;5.934;2023-02-23T10:26:46;11.20;94.10
38480;DHT22;62333;51.980;5.934;2023-02-23T10:29:35;11.30;94.10
38480;DHT22;62333;51.980;5.934;2023-02-23T10:34:37;11.30;94.10
38480;DHT22;62333;51.980;5.934;2023-02-23T10:37:06;11.20;94.00
38480;DHT22;62333;51.980;5.934;2023-02-23T10:39:35;11.20;93.90
38480;DHT22;62333;51.980;5.934;2023-02-23T10:42:06;11.20;93.90
38480;DHT22;62333;51.980;5.934;2023-02-23T10:44:36;11.20;93.90
38480;DHT22;62333;51.980;5.934;2023-02-23T10:47:09;11.20;93.90
38480;DHT22;62333;51.980;5.934;2023-02-23T10:49:51;11.10;93.90
38480;DHT22;62333;51.980;5.934;2023-02-23T10:52:34;11.20;93.90
38480;DHT22;62333;51.980;5.934;2023-02-23T10:55:03;11.20;94.00
38480;DHT22;62333;51.980;5.934;2023-02-23T10:57:32;11.20;94.00
38480;DHT22;62333;51.980;5.934;2023-02-23T11:00:07;11.20;94.00
38480;DHT22;62333;51.980;5.934;2023-02-23T11:02:33;11.20;94.00
38480;DHT22;62333;51.980;5.934;2023-02-23T11:05:01;11.20;94.00
38480;DHT22;62333;51.980;5.934;2023-02-23T11:07:29;11.20;94.00
38480;DHT22;62333;51.980;5.934;2023-02-23T11:10:22;11.20;94.00
38480;DHT22;62333;51.980;5.934;2023-02-23T11:12:45;11.20;93.90
38480;DHT22;62333;51.980;5.934;2023-02-23T11:15:37;11.20;93.90
38480;DHT22;62333;51.980;5.934;2023-02-23T11:18:18;11.20;93.90
38480;DHT22;62333;51.980;5.934;2023-02-23T11:20:47;11.20;93.90
38480;DHT22;62333;51.980;5.934;2023-02-23T11:23:25;11.20;93.90
38480;DHT22;62333;51.980;5.934;2023-02-23T11:25:55;11.20;93.90
38480;DHT22;62333;51.980;5.934;2023-02-23T11:28:41;11.30;93.90
38480;DHT22;62333;51.980;5.934;2023-02-23T11:31:17;11.30;93.90
38480;DHT22;62333;51.980;5.934;2023-02-23T11:33:43;11.30;93.90
38480;DHT22;62333;51.980;5.934;2023-02-23T11:36:25;11.20;93.80
38480;DHT22;62333;51.980;5.934;2023-02-23T11:39:07;11.30;93.90
38480;DHT22;62333;51.980;5.934;2023-02-23T11:41:40;11.30;93.90
38480;DHT22;62333;51.980;5.934;2023-02-23T11:44:06;11.30;93.80
38480;DHT22;62333;51.980;5.934;2023-02-23T11:46:35;11.30;93.80
38480;DHT22;62333;51.980;5.934;2023-02-23T11:51:32;11.30;93.70
38480;DHT22;62333;51.980;5.934;2023-02-23T11:54:00;11.30;93.80
38480;DHT22;62333;51.980;5.934;2023-02-23T11:56:28;11.30;93.80
38480;DHT22;62333;51.980;5.934;2023-02-23T11:59:01;11.30;93.80
38480;DHT22;62333;51.980;5.934;2023-02-23T12:01:41;11.30;93.80
38480;DHT22;62333;51.980;5.934;2023-02-23T12:04:31;11.30;93.70
38480;DHT22;62333;51.980;5.934;2023-02-23T12:07:18;11.30;93.70
38480;DHT22;62333;51.980;5.934;2023-02-23T12:09:46;11.40;93.80
38480;DHT22;62333;51.980;5.934;2023-02-23T12:12:19;11.40;93.80
38480;DHT22;62333;51.980;5.934;2023-02-23T12:14:52;11.40;93.70
38480;DHT22;62333;51.980;5.934;2023-02-23T12:17:33;11.40;93.70
38480;DHT22;62333;51.980;5.934;2023-02-23T12:22:50;11.40;93.60
38480;DHT22;62333;51.980;5.934;2023-02-23T12:25:32;11.40;93.60
38480;DHT22;62333;51.980;5.934;2023-02-23T12:28:05;11.40;93.50
38480;DHT22;62333;51.980;5.934;2023-02-23T12:30:43;11.50;93.50
38480;DHT22;62333;51.980;5.934;2023-02-23T12:33:33;11.50;93.50
38480;DHT22;62333;51.980;5.934;2023-02-23T12:39:25;11.50;93.40
38480;DHT22;62333;51.980;5.934;2023-02-23T12:44:57;11.50;93.40
38480;DHT22;62333;51.980;5.934;2023-02-23T12:50:36;11.50;93.40
38480;DHT22;62333;51.980;5.934;2023-02-23T12:53:27;11.50;93.40
38480;DHT22;62333;51.980;5.934;2023-02-23T12:59:03;11.50;93.20
38480;DHT22;62333;51.980;5.934;2023-02-23T13:01:55;11.50;93.20
38480;DHT22;62333;51.980;5.934;2023-02-23T13:14:01;11.40;93.10
38480;DHT22;62333;51.980;5.934;2023-02-23T13:18:45;11.30;93.10
38480;DHT22;62333;51.980;5.934;2023-02-23T13:21:32;11.30;93.10
38480;DHT22;62333;51.980;5.934;2023-02-23T13:29:45;11.30;93.10
38480;DHT22;62333;51.980;5.934;2023-02-23T13:31:51;11.30;93.10
38480;DHT22;62333;51.980;5.934;2023-02-23T13:34:27;11.30;93.10
38480;DHT22;62333;51.980;5.934;2023-02-23T13:36:54;11.30;93.10
38480;DHT22;62333;51.980;5.934;2023-02-23T13:48:15;11.30;93.10
38480;DHT22;62333;51.980;5.934;2023-02-23T13:50:59;11.30;93.00
38480;DHT22;62333;51.980;5.934;2023-02-23T13:53:37;11.20;93.00
38480;DHT22;62333;51.980;5.934;2023-02-23T13:56:24;11.20;92.90
38480;DHT22;62333;51.980;5.934;2023-02-23T13:58:58;11.20;92.90
38480;DHT22;62333;51.980;5.934;2023-02-23T14:01:39;11.20;92.90
38480;DHT22;62333;51.980;5.934;2023-02-23T14:04:20;11.20;92.90
38480;DHT22;62333;51.980;5.934;2023-02-23T14:09:55;11.30;92.90
38480;DHT22;62333;51.980;5.934;2023-02-23T14:12:33;11.30;92.80
38480;DHT22;62333;51.980;5.934;2023-02-23T14:23:33;11.40;92.70
38480;DHT22;62333;51.980;5.934;2023-02-23T14:26:12;11.40;92.70
38480;DHT22;62333;51.980;5.934;2023-02-23T14:28:42;11.50;92.70
38480;DHT22;62333;51.980;5.934;2023-02-23T14:39:23;11.50;92.60
38480;DHT22;62333;51.980;5.934;2023-02-23T14:41:57;11.60;92.60
38480;DHT22;62333;51.980;5.934;2023-02-23T14:44:34;11.60;92.60
38480;DHT22;62333;51.980;5.934;2023-02-23T14:47:07;11.60;92.60
38480;DHT22;62333;51.980;5.934;2023-02-23T14:49:36;11.50;92.50
38480;DHT22;62333;51.980;5.934;2023-02-23T14:57:40;11.50;92.40
38480;DHT22;62333;51.980;5.934;2023-02-23T15:00:26;11.50;92.40
38480;DHT22;62333;51.980;5.934;2023-02-23T15:03:04;11.50;92.40
38480;DHT22;62333;51.980;5.934;2023-02-23T15:05:42;11.50;92.40
38480;DHT22;62333;51.980;5.934;2023-02-23T15:08:11;11.50;92.40
38480;DHT22;62333;51.980;5.934;2023-02-23T15:10:44;11.50;92.30
38480;DHT22;62333;51.980;5.934;2023-02-23T15:13:19;11.50;92.40
38480;DHT22;62333;51.980;5.934;2023-02-23T15:15:50;11.50;92.40
38480;DHT22;62333;51.980;5.934;2023-02-23T15:18:31;11.50;92.40
38480;DHT22;62333;51.980;5.934;2023-02-23T15:20:57;11.40;92.30
38480;DHT22;62333;51.980;5.934;2023-02-23T15:23:23;11.50;92.60
38480;DHT22;62333;51.980;5.934;2023-02-23T15:25:49;11.50;92.30
38480;DHT22;62333;51.980;5.934;2023-02-23T15:28:25;11.50;92.30
38480;DHT22;62333;51.980;5.934;2023-02-23T15:30:53;11.40;92.30
38480;DHT22;62333;51.980;5.934;2023-02-23T15:33:20;11.50;92.30
38480;DHT22;62333;51.980;5.934;2023-02-23T15:38:31;11.40;92.40
38480;DHT22;62333;51.980;5.934;2023-02-23T15:41:00;11.40;92.30
38480;DHT22;62333;51.980;5.934;2023-02-23T15:43:27;11.40;92.40
38480;DHT22;62333;51.980;5.934;2023-02-23T15:45:55;11.40;92.40
38480;DHT22;62333;51.980;5.934;2023-02-23T15:48:26;11.40;92.40
38480;DHT22;62333;51.980;5.934;2023-02-23T15:50:55;11.40;92.40
38480;DHT22;62333;51.980;5.934;2023-02-23T15:53:34;11.40;92.40
38480;DHT22;62333;51.980;5.934;2023-02-23T15:56:19;11.40;92.40
38480;DHT22;62333;51.980;5.934;2023-02-23T15:58:50;11.40;92.40
38480;DHT22;62333;51.980;5.934;2023-02-23T16:01:28;11.40;92.40
38480;DHT22;62333;51.980;5.934;2023-02-23T16:04:07;11.40;92.40
38480;DHT22;62333;51.980;5.934;2023-02-23T16:07:06;11.40;92.50
38480;DHT22;62333;51.980;5.934;2023-02-23T16:09:32;11.40;92.50
38480;DHT22;62333;51.980;5.934;2023-02-23T16:12:14;11.40;92.50
38480;DHT22;62333;51.980;5.934;2023-02-23T16:15:01;11.30;92.50
38480;DHT22;62333;51.980;5.934;2023-02-23T16:17:42;11.30;92.50
38480;DHT22;62333;51.980;5.934;2023-02-23T16:20:38;11.40;92.50
38480;DHT22;62333;51.980;5.934;2023-02-23T16:28:59;11.30;92.50
38480;DHT22;62333;51.980;5.934;2023-02-23T16:32:00;11.30;92.50
38480;DHT22;62333;51.980;5.934;2023-02-23T16:34:53;11.30;92.50
38480;DHT22;62333;51.980;5.934;2023-02-23T16:37:22;11.30;92.50
38480;DHT22;62333;51.980;5.934;2023-02-23T16:39:49;11.30;92.60
38480;DHT22;62333;51.980;5.934;2023-02-23T16:42:36;11.20;92.50
38480;DHT22;62333;51.980;5.934;2023-02-23T16:45:04;11.20;92.60
38480;DHT22;62333;51.980;5.934;2023-02-23T16:47:34;11.20;92.60
38480;DHT22;62333;51.980;5.934;2023-02-23T16:50:15;11.20;92.60
38480;DHT22;62333;51.980;5.934;2023-02-23T16:52:46;11.20;92.60
38480;DHT22;62333;51.980;5.934;2023-02-23T16:55:16;11.20;92.60
38480;DHT22;62333;51.980;5.934;2023-02-23T16:57:45;11.20;92.60
38480;DHT22;62333;51.980;5.934;2023-02-23T17:00:15;11.20;92.60
38480;DHT22;62333;51.980;5.934;2023-02-23T17:02:44;11.20;92.60
38480;DHT22;62333;51.980;5.934;2023-02-23T17:05:16;11.20;92.70
38480;DHT22;62333;51.980;5.934;2023-02-23T17:07:44;11.20;92.70
38480;DHT22;62333;51.980;5.934;2023-02-23T17:10:23;11.20;92.70
38480;DHT22;62333;51.980;5.934;2023-02-23T17:12:55;11.20;92.70
38480;DHT22;62333;51.980;5.934;2023-02-23T17:15:21;11.20;92.70
38480;DHT22;62333;51.980;5.934;2023-02-23T17:17:47;11.20;92.70
38480;DHT22;62333;51.980;5.934;2023-02-23T17:20:13;11.20;92.70
38480;DHT22;62333;51.980;5.934;2023-02-23T17:22:42;11.20;92.80
38480;DHT22;62333;51.980;5.934;2023-02-23T17:25:09;11.10;92.80
38480;DHT22;62333;51.980;5.934;2023-02-23T17:27:34;11.10;92.80
38480;DHT22;62333;51.980;5.934;2023-02-23T17:30:00;11.00;92.90
38480;DHT22;62333;51.980;5.934;2023-02-23T17:32:26;11.00;92.90
38480;DHT22;62333;51.980;5.934;2023-02-23T17:34:54;11.00;92.90
38480;DHT22;62333;51.980;5.934;2023-02-23T17:37:20;10.90;93.00
38480;DHT22;62333;51.980;5.934;2023-02-23T17:39:46;10.80;93.00
38480;DHT22;62333;51.980;5.934;2023-02-23T17:42:17;10.80;93.00
38480;DHT22;62333;51.980;5.934;2023-02-23T17:44:43;10.70;93.30
38480;DHT22;62333;51.980;5.934;2023-02-23T17:47:09;10.70;93.10
38480;DHT22;62333;51.980;5.934;2023-02-23T17:49:35;10.60;93.10
38480;DHT22;62333;51.980;5.934;2023-02-23T17:52:01;10.60;93.10
38480;DHT22;62333;51.980;5.934;2023-02-23T17:54:28;10.50;93.00
38480;DHT22;62333;51.980;5.934;2023-02-23T17:56:54;10.50;93.00
38480;DHT22;62333;51.980;5.934;2023-02-23T17:59:19;10.40;93.00
38480;DHT22;62333;51.980;5.934;2023-02-23T18:01:45;10.40;93.00
38480;DHT22;62333;51.980;5.934;2023-02-23T18:04:13;10.40;93.00
38480;DHT22;62333;51.980;5.934;2023-02-23T18:06:39;10.30;92.90
38480;DHT22;62333;51.980;5.934;2023-02-23T18:09:05;10.30;92.90
38480;DHT22;62333;51.980;5.934;2023-02-23T18:11:32;10.30;93.00